Terminal Aerodrome Forecast
Issued by NWS

Home | Current Version | Previous Version | Text Only | Print | Product List | Glossary On
Versions: 1 2 3 4 5 6 7 8 9 10 11 12 13 14 15 16 17 18 19 20 21 22 23 24
000
FTAK31 PANC 231143
TAFATK
TAF
PATK 231143Z 2312/2412 18005KT P6SM VCSH SCT045 OVC080
     FM232200 18005KT P6SM SCT045 OVC080
     FM240300 20005KT P6SM -SHRA BKN060=

USA.gov is the U.S. government's official web portal to all federal, state and local government web resources and services.